sensor_id;sensor_type;location;lat;lon;timestamp;temperature;humidity
9640;DHT22;51745;50.872;4.732;2022-07-22T00:01:41;15.20;99.90
9640;DHT22;51745;50.872;4.732;2022-07-22T00:04:28;15.10;99.90
9640;DHT22;51745;50.872;4.732;2022-07-22T00:07:16;15.00;99.90
9640;DHT22;51745;50.872;4.732;2022-07-22T00:10:07;14.90;99.90
9640;DHT22;51745;50.872;4.732;2022-07-22T00:12:57;13.30;99.90
9640;DHT22;51745;50.872;4.732;2022-07-22T00:15:45;14.80;99.90
9640;DHT22;51745;50.872;4.732;2022-07-22T00:18:33;14.70;99.90
9640;DHT22;51745;50.872;4.732;2022-07-22T00:21:21;14.70;99.90
9640;DHT22;51745;50.872;4.732;2022-07-22T00:24:09;14.20;99.90
9640;DHT22;51745;50.872;4.732;2022-07-22T00:26:58;14.70;99.90
9640;DHT22;51745;50.872;4.732;2022-07-22T00:29:45;15.80;99.90
9640;DHT22;51745;50.872;4.732;2022-07-22T00:32:34;14.70;99.90
9640;DHT22;51745;50.872;4.732;2022-07-22T00:35:22;14.70;99.90
9640;DHT22;51745;50.872;4.732;2022-07-22T00:38:09;14.80;99.90
9640;DHT22;51745;50.872;4.732;2022-07-22T00:40:57;14.70;99.90
9640;DHT22;51745;50.872;4.732;2022-07-22T00:43:49;14.80;99.90
9640;DHT22;51745;50.872;4.732;2022-07-22T00:46:37;14.70;99.90
9640;DHT22;51745;50.872;4.732;2022-07-22T00:49:27;14.70;99.90
9640;DHT22;51745;50.872;4.732;2022-07-22T00:52:15;14.70;99.90
9640;DHT22;51745;50.872;4.732;2022-07-22T00:55:02;14.70;99.90
9640;DHT22;51745;50.872;4.732;2022-07-22T00:57:50;14.70;99.90
9640;DHT22;51745;50.872;4.732;2022-07-22T01:00:39;14.60;99.90
9640;DHT22;51745;50.872;4.732;2022-07-22T01:03:27;14.60;99.90
9640;DHT22;51745;50.872;4.732;2022-07-22T01:06:14;14.60;99.90
9640;DHT22;51745;50.872;4.732;2022-07-22T01:09:02;14.60;99.90
9640;DHT22;51745;50.872;4.732;2022-07-22T01:11:49;14.50;99.90
9640;DHT22;51745;50.872;4.732;2022-07-22T01:14:37;14.50;99.90
9640;DHT22;51745;50.872;4.732;2022-07-22T01:17:26;14.50;99.90
9640;DHT22;51745;50.872;4.732;2022-07-22T01:20:17;14.40;99.90
9640;DHT22;51745;50.872;4.732;2022-07-22T01:23:05;14.40;99.90
9640;DHT22;51745;50.872;4.732;2022-07-22T01:25:53;14.40;99.90
9640;DHT22;51745;50.872;4.732;2022-07-22T01:28:44;14.40;99.90
9640;DHT22;51745;50.872;4.732;2022-07-22T01:31:31;14.40;99.90
9640;DHT22;51745;50.872;4.732;2022-07-22T01:34:18;14.40;99.90
9640;DHT22;51745;50.872;4.732;2022-07-22T01:37:07;14.40;99.90
9640;DHT22;51745;50.872;4.732;2022-07-22T01:39:59;14.30;99.90
9640;DHT22;51745;50.872;4.732;2022-07-22T01:42:46;14.30;99.90
9640;DHT22;51745;50.872;4.732;2022-07-22T01:45:34;14.30;99.90
9640;DHT22;51745;50.872;4.732;2022-07-22T01:48:21;14.20;99.90
9640;DHT22;51745;50.872;4.732;2022-07-22T01:51:10;14.20;99.90
9640;DHT22;51745;50.872;4.732;2022-07-22T01:53:59;14.10;99.90
9640;DHT22;51745;50.872;4.732;2022-07-22T01:56:46;14.20;99.90
9640;DHT22;51745;50.872;4.732;2022-07-22T01:59:34;14.10;99.90
9640;DHT22;51745;50.872;4.732;2022-07-22T02:02:21;14.10;99.90
9640;DHT22;51745;50.872;4.732;2022-07-22T02:05:09;14.10;99.90
9640;DHT22;51745;50.872;4.732;2022-07-22T02:07:58;14.00;99.90
9640;DHT22;51745;50.872;4.732;2022-07-22T02:10:50;14.00;99.90
9640;DHT22;51745;50.872;4.732;2022-07-22T02:13:38;14.00;99.90
9640;DHT22;51745;50.872;4.732;2022-07-22T02:16:26;13.90;99.90
9640;DHT22;51745;50.872;4.732;2022-07-22T02:19:14;14.00;99.90
9640;DHT22;51745;50.872;4.732;2022-07-22T02:22:03;13.90;99.90
9640;DHT22;51745;50.872;4.732;2022-07-22T02:24:51;13.90;99.90
9640;DHT22;51745;50.872;4.732;2022-07-22T02:27:40;13.90;99.90
9640;DHT22;51745;50.872;4.732;2022-07-22T02:30:28;13.90;99.90
9640;DHT22;51745;50.872;4.732;2022-07-22T02:33:16;13.80;99.90
9640;DHT22;51745;50.872;4.732;2022-07-22T02:36:04;13.80;99.90
9640;DHT22;51745;50.872;4.732;2022-07-22T02:38:53;13.80;99.90
9640;DHT22;51745;50.872;4.732;2022-07-22T02:41:42;13.80;99.90
9640;DHT22;51745;50.872;4.732;2022-07-22T02:44:31;13.80;99.90
9640;DHT22;51745;50.872;4.732;2022-07-22T02:47:18;15.70;99.90
9640;DHT22;51745;50.872;4.732;2022-07-22T02:50:07;13.60;99.90
9640;DHT22;51745;50.872;4.732;2022-07-22T02:52:54;13.70;99.90
9640;DHT22;51745;50.872;4.732;2022-07-22T02:55:48;13.70;99.90
9640;DHT22;51745;50.872;4.732;2022-07-22T02:58:36;13.70;99.90
9640;DHT22;51745;50.872;4.732;2022-07-22T03:01:25;13.60;99.90
9640;DHT22;51745;50.872;4.732;2022-07-22T03:04:16;13.60;99.90
9640;DHT22;51745;50.872;4.732;2022-07-22T03:07:03;13.50;99.90
9640;DHT22;51745;50.872;4.732;2022-07-22T03:09:51;13.50;99.90
9640;DHT22;51745;50.872;4.732;2022-07-22T03:12:47;14.30;99.90
9640;DHT22;51745;50.872;4.732;2022-07-22T03:15:35;13.30;99.90
9640;DHT22;51745;50.872;4.732;2022-07-22T03:18:25;13.30;99.90
9640;DHT22;51745;50.872;4.732;2022-07-22T03:21:15;13.30;99.90
9640;DHT22;51745;50.872;4.732;2022-07-22T03:24:06;13.30;99.90
9640;DHT22;51745;50.872;4.732;2022-07-22T03:26:54;13.30;99.90
9640;DHT22;51745;50.872;4.732;2022-07-22T03:29:41;13.30;99.90
9640;DHT22;51745;50.872;4.732;2022-07-22T03:32:29;13.30;99.90
9640;DHT22;51745;50.872;4.732;2022-07-22T03:35:19;13.30;99.90
9640;DHT22;51745;50.872;4.732;2022-07-22T03:38:06;13.30;99.90
9640;DHT22;51745;50.872;4.732;2022-07-22T03:40:55;13.30;99.90
9640;DHT22;51745;50.872;4.732;2022-07-22T03:43:43;13.30;99.90
9640;DHT22;51745;50.872;4.732;2022-07-22T03:46:31;13.30;99.90
9640;DHT22;51745;50.872;4.732;2022-07-22T03:49:19;13.40;99.90
9640;DHT22;51745;50.872;4.732;2022-07-22T03:52:07;13.30;99.90
9640;DHT22;51745;50.872;4.732;2022-07-22T03:54:55;13.20;99.90
9640;DHT22;51745;50.872;4.732;2022-07-22T03:57:42;13.30;99.90
9640;DHT22;51745;50.872;4.732;2022-07-22T04:00:43;13.40;99.90
9640;DHT22;51745;50.872;4.732;2022-07-22T04:03:30;13.30;99.90
9640;DHT22;51745;50.872;4.732;2022-07-22T04:06:41;13.30;99.90
9640;DHT22;51745;50.872;4.732;2022-07-22T04:09:37;13.30;99.90
9640;DHT22;51745;50.872;4.732;2022-07-22T04:12:25;13.30;99.90
9640;DHT22;51745;50.872;4.732;2022-07-22T04:15:38;13.30;99.90
9640;DHT22;51745;50.872;4.732;2022-07-22T04:18:26;13.30;99.90
9640;DHT22;51745;50.872;4.732;2022-07-22T04:21:13;13.40;99.90
9640;DHT22;51745;50.872;4.732;2022-07-22T04:24:09;13.40;99.90
9640;DHT22;51745;50.872;4.732;2022-07-22T04:26:58;12.30;99.90
9640;DHT22;51745;50.872;4.732;2022-07-22T04:29:46;13.50;99.90
9640;DHT22;51745;50.872;4.732;2022-07-22T04:32:34;13.50;99.90
9640;DHT22;51745;50.872;4.732;2022-07-22T04:35:22;13.60;99.90
9640;DHT22;51745;50.872;4.732;2022-07-22T04:38:24;13.70;99.90
9640;DHT22;51745;50.872;4.732;2022-07-22T04:41:17;13.70;99.90
9640;DHT22;51745;50.872;4.732;2022-07-22T04:44:08;13.80;99.90
9640;DHT22;51745;50.872;4.732;2022-07-22T04:46:56;13.80;99.90
9640;DHT22;51745;50.872;4.732;2022-07-22T04:49:50;13.80;99.90
9640;DHT22;51745;50.872;4.732;2022-07-22T04:52:39;13.90;99.90
9640;DHT22;51745;50.872;4.732;2022-07-22T04:55:35;14.00;99.90
9640;DHT22;51745;50.872;4.732;2022-07-22T04:58:23;14.00;99.90
9640;DHT22;51745;50.872;4.732;2022-07-22T05:01:12;14.00;99.90
9640;DHT22;51745;50.872;4.732;2022-07-22T05:04:03;14.20;99.90
9640;DHT22;51745;50.872;4.732;2022-07-22T05:06:51;14.30;99.90
9640;DHT22;51745;50.872;4.732;2022-07-22T05:09:40;14.40;99.90
9640;DHT22;51745;50.872;4.732;2022-07-22T05:12:31;14.40;99.90
9640;DHT22;51745;50.872;4.732;2022-07-22T05:15:19;14.20;99.90
9640;DHT22;51745;50.872;4.732;2022-07-22T05:18:08;14.50;99.90
9640;DHT22;51745;50.872;4.732;2022-07-22T05:20:56;14.50;99.90
9640;DHT22;51745;50.872;4.732;2022-07-22T05:23:44;14.60;99.90
9640;DHT22;51745;50.872;4.732;2022-07-22T05:26:33;14.60;99.90
9640;DHT22;51745;50.872;4.732;2022-07-22T05:29:21;14.70;99.90
9640;DHT22;51745;50.872;4.732;2022-07-22T05:32:09;14.70;99.90
9640;DHT22;51745;50.872;4.732;2022-07-22T05:34:58;14.90;99.90
9640;DHT22;51745;50.872;4.732;2022-07-22T05:37:46;15.10;99.90
9640;DHT22;51745;50.872;4.732;2022-07-22T05:40:34;13.30;99.90
9640;DHT22;51745;50.872;4.732;2022-07-22T05:43:22;15.40;99.90
9640;DHT22;51745;50.872;4.732;2022-07-22T05:46:10;15.50;99.90
9640;DHT22;51745;50.872;4.732;2022-07-22T05:48:58;15.50;99.90
9640;DHT22;51745;50.872;4.732;2022-07-22T05:51:52;15.50;99.90
9640;DHT22;51745;50.872;4.732;2022-07-22T05:54:39;15.50;99.90
9640;DHT22;51745;50.872;4.732;2022-07-22T05:57:27;15.30;99.90
9640;DHT22;51745;50.872;4.732;2022-07-22T06:00:14;15.40;99.90
9640;DHT22;51745;50.872;4.732;2022-07-22T06:03:02;15.50;99.90
9640;DHT22;51745;50.872;4.732;2022-07-22T06:05:53;15.50;99.90
9640;DHT22;51745;50.872;4.732;2022-07-22T06:08:42;15.50;99.90
9640;DHT22;51745;50.872;4.732;2022-07-22T06:11:38;15.60;99.90
9640;DHT22;51745;50.872;4.732;2022-07-22T06:14:25;15.60;99.90
9640;DHT22;51745;50.872;4.732;2022-07-22T06:17:13;15.80;99.90
9640;DHT22;51745;50.872;4.732;2022-07-22T06:20:00;16.00;99.90
9640;DHT22;51745;50.872;4.732;2022-07-22T06:22:48;17.30;99.90
9640;DHT22;51745;50.872;4.732;2022-07-22T06:25:39;16.40;99.90
9640;DHT22;51745;50.872;4.732;2022-07-22T06:28:48;16.60;99.90
9640;DHT22;51745;50.872;4.732;2022-07-22T06:31:36;16.60;99.90
9640;DHT22;51745;50.872;4.732;2022-07-22T06:34:25;17.40;99.90
9640;DHT22;51745;50.872;4.732;2022-07-22T06:37:20;16.70;99.90
9640;DHT22;51745;50.872;4.732;2022-07-22T06:40:28;16.70;99.90
9640;DHT22;51745;50.872;4.732;2022-07-22T06:43:40;16.30;99.90
9640;DHT22;51745;50.872;4.732;2022-07-22T06:46:51;18.50;99.90
9640;DHT22;51745;50.872;4.732;2022-07-22T06:49:40;16.90;99.90
9640;DHT22;51745;50.872;4.732;2022-07-22T06:52:29;17.00;99.90
9640;DHT22;51745;50.872;4.732;2022-07-22T06:55:19;17.10;99.90
9640;DHT22;51745;50.872;4.732;2022-07-22T06:58:17;17.10;99.90
9640;DHT22;51745;50.872;4.732;2022-07-22T07:01:09;17.10;99.90
9640;DHT22;51745;50.872;4.732;2022-07-22T07:04:07;17.10;99.90
9640;DHT22;51745;50.872;4.732;2022-07-22T07:07:02;17.00;99.90
9640;DHT22;51745;50.872;4.732;2022-07-22T07:09:50;17.50;99.90
9640;DHT22;51745;50.872;4.732;2022-07-22T07:12:49;17.20;99.90
9640;DHT22;51745;50.872;4.732;2022-07-22T07:15:46;17.40;99.90
9640;DHT22;51745;50.872;4.732;2022-07-22T07:18:35;17.00;99.90
9640;DHT22;51745;50.872;4.732;2022-07-22T07:21:23;17.10;99.90
9640;DHT22;51745;50.872;4.732;2022-07-22T07:24:12;17.20;99.90
9640;DHT22;51745;50.872;4.732;2022-07-22T07:27:03;17.10;99.90
9640;DHT22;51745;50.872;4.732;2022-07-22T07:29:52;17.20;99.90
9640;DHT22;51745;50.872;4.732;2022-07-22T07:32:40;17.90;99.90
9640;DHT22;51745;50.872;4.732;2022-07-22T07:35:29;17.40;99.90
9640;DHT22;51745;50.872;4.732;2022-07-22T07:38:27;17.40;99.90
9640;DHT22;51745;50.872;4.732;2022-07-22T07:41:15;17.80;99.90
9640;DHT22;51745;50.872;4.732;2022-07-22T07:44:07;18.00;99.90
9640;DHT22;51745;50.872;4.732;2022-07-22T07:46:56;18.00;99.90
9640;DHT22;51745;50.872;4.732;2022-07-22T07:49:45;18.10;99.90
9640;DHT22;51745;50.872;4.732;2022-07-22T07:52:37;18.20;99.90
9640;DHT22;51745;50.872;4.732;2022-07-22T07:55:25;18.50;99.90
9640;DHT22;51745;50.872;4.732;2022-07-22T07:58:13;18.80;99.90
9640;DHT22;51745;50.872;4.732;2022-07-22T08:01:07;18.60;99.90
9640;DHT22;51745;50.872;4.732;2022-07-22T08:03:56;20.20;99.90
9640;DHT22;51745;50.872;4.732;2022-07-22T08:07:04;18.50;99.90
9640;DHT22;51745;50.872;4.732;2022-07-22T08:10:00;18.40;99.90
9640;DHT22;51745;50.872;4.732;2022-07-22T08:13:20;18.70;99.90
9640;DHT22;51745;50.872;4.732;2022-07-22T08:16:34;18.60;99.90
9640;DHT22;51745;50.872;4.732;2022-07-22T08:19:23;18.90;99.90
9640;DHT22;51745;50.872;4.732;2022-07-22T08:22:13;18.90;99.90
9640;DHT22;51745;50.872;4.732;2022-07-22T08:25:17;19.10;99.90
9640;DHT22;51745;50.872;4.732;2022-07-22T08:28:07;18.90;99.90
9640;DHT22;51745;50.872;4.732;2022-07-22T08:30:54;18.70;99.90
9640;DHT22;51745;50.872;4.732;2022-07-22T08:33:43;18.60;99.90
9640;DHT22;51745;50.872;4.732;2022-07-22T08:36:42;18.60;99.90
9640;DHT22;51745;50.872;4.732;2022-07-22T08:40:13;18.70;99.90
9640;DHT22;51745;50.872;4.732;2022-07-22T08:43:06;19.00;99.90
9640;DHT22;51745;50.872;4.732;2022-07-22T08:45:55;18.90;99.90
9640;DHT22;51745;50.872;4.732;2022-07-22T08:48:44;18.90;99.90
9640;DHT22;51745;50.872;4.732;2022-07-22T08:52:00;19.00;99.90
9640;DHT22;51745;50.872;4.732;2022-07-22T08:54:55;19.20;99.90
9640;DHT22;51745;50.872;4.732;2022-07-22T08:57:44;19.10;99.90
9640;DHT22;51745;50.872;4.732;2022-07-22T09:00:34;19.00;99.90
9640;DHT22;51745;50.872;4.732;2022-07-22T09:03:25;18.80;99.90
9640;DHT22;51745;50.872;4.732;2022-07-22T09:06:18;19.60;99.90
9640;DHT22;51745;50.872;4.732;2022-07-22T09:09:10;18.40;99.90
9640;DHT22;51745;50.872;4.732;2022-07-22T09:12:17;19.50;99.90
9640;DHT22;51745;50.872;4.732;2022-07-22T09:15:26;19.40;99.90
9640;DHT22;51745;50.872;4.732;2022-07-22T09:18:45;21.20;99.90
9640;DHT22;51745;50.872;4.732;2022-07-22T09:21:59;19.60;99.90
9640;DHT22;51745;50.872;4.732;2022-07-22T09:25:18;19.70;99.90
9640;DHT22;51745;50.872;4.732;2022-07-22T09:28:28;19.90;99.90
9640;DHT22;51745;50.872;4.732;2022-07-22T09:31:52;20.10;99.90
9640;DHT22;51745;50.872;4.732;2022-07-22T09:35:08;20.30;99.90
9640;DHT22;51745;50.872;4.732;2022-07-22T09:38:10;20.10;99.90
9640;DHT22;51745;50.872;4.732;2022-07-22T09:40:58;20.00;99.90
9640;DHT22;51745;50.872;4.732;2022-07-22T09:43:48;20.00;99.90
9640;DHT22;51745;50.872;4.732;2022-07-22T09:46:37;19.90;99.90
9640;DHT22;51745;50.872;4.732;2022-07-22T09:49:43;19.80;99.90
9640;DHT22;51745;50.872;4.732;2022-07-22T09:52:58;19.90;99.90
9640;DHT22;51745;50.872;4.732;2022-07-22T09:55:51;20.30;99.90
9640;DHT22;51745;50.872;4.732;2022-07-22T09:58:38;20.30;99.90
9640;DHT22;51745;50.872;4.732;2022-07-22T10:01:40;20.30;99.90
9640;DHT22;51745;50.872;4.732;2022-07-22T10:04:34;20.50;99.90
9640;DHT22;51745;50.872;4.732;2022-07-22T10:07:25;22.60;99.90
9640;DHT22;51745;50.872;4.732;2022-07-22T10:10:18;20.40;99.90
9640;DHT22;51745;50.872;4.732;2022-07-22T10:13:20;20.20;99.90
9640;DHT22;51745;50.872;4.732;2022-07-22T10:16:33;20.30;99.90
9640;DHT22;51745;50.872;4.732;2022-07-22T10:19:23;20.00;99.90
9640;DHT22;51745;50.872;4.732;2022-07-22T10:25:17;22.70;99.90
9640;DHT22;51745;50.872;4.732;2022-07-22T10:28:06;20.50;99.90
9640;DHT22;51745;50.872;4.732;2022-07-22T10:31:07;20.50;99.90
9640;DHT22;51745;50.872;4.732;2022-07-22T10:34:04;20.30;99.90
9640;DHT22;51745;50.872;4.732;2022-07-22T10:36:52;20.40;99.90
9640;DHT22;51745;50.872;4.732;2022-07-22T10:39:50;20.60;99.90
9640;DHT22;51745;50.872;4.732;2022-07-22T10:43:06;20.90;99.90
9640;DHT22;51745;50.872;4.732;2022-07-22T10:45:57;21.00;99.90
9640;DHT22;51745;50.872;4.732;2022-07-22T10:48:48;21.80;99.90
9640;DHT22;51745;50.872;4.732;2022-07-22T10:51:35;21.00;99.90
9640;DHT22;51745;50.872;4.732;2022-07-22T10:54:25;21.10;99.90
9640;DHT22;51745;50.872;4.732;2022-07-22T10:57:29;21.10;99.90
9640;DHT22;51745;50.872;4.732;2022-07-22T11:00:24;20.90;99.90
9640;DHT22;51745;50.872;4.732;2022-07-22T11:03:12;21.30;99.90
9640;DHT22;51745;50.872;4.732;2022-07-22T11:06:12;21.40;99.90
9640;DHT22;51745;50.872;4.732;2022-07-22T11:09:00;21.60;99.90
9640;DHT22;51745;50.872;4.732;2022-07-22T11:11:52;21.60;99.90
9640;DHT22;51745;50.872;4.732;2022-07-22T11:14:42;21.60;99.90
9640;DHT22;51745;50.872;4.732;2022-07-22T11:17:41;21.50;99.90
9640;DHT22;51745;50.872;4.732;2022-07-22T11:20:29;21.60;99.90
9640;DHT22;51745;50.872;4.732;2022-07-22T11:23:17;21.70;99.90
9640;DHT22;51745;50.872;4.732;2022-07-22T11:26:10;21.50;99.90
9640;DHT22;51745;50.872;4.732;2022-07-22T11:29:01;21.70;99.90
9640;DHT22;51745;50.872;4.732;2022-07-22T11:31:48;21.90;99.90
9640;DHT22;51745;50.872;4.732;2022-07-22T11:34:40;22.20;99.90
9640;DHT22;51745;50.872;4.732;2022-07-22T11:37:34;22.00;99.90
9640;DHT22;51745;50.872;4.732;2022-07-22T11:40:30;22.20;99.90
9640;DHT22;51745;50.872;4.732;2022-07-22T11:43:18;22.10;99.90
9640;DHT22;51745;50.872;4.732;2022-07-22T11:46:06;22.00;99.90
9640;DHT22;51745;50.872;4.732;2022-07-22T11:48:55;21.90;99.90
9640;DHT22;51745;50.872;4.732;2022-07-22T11:51:45;21.90;99.90
9640;DHT22;51745;50.872;4.732;2022-07-22T11:54:39;21.80;99.90
9640;DHT22;51745;50.872;4.732;2022-07-22T11:57:29;21.80;99.90
9640;DHT22;51745;50.872;4.732;2022-07-22T12:00:17;22.00;99.90
9640;DHT22;51745;50.872;4.732;2022-07-22T12:03:04;22.30;99.90
9640;DHT22;51745;50.872;4.732;2022-07-22T12:05:52;22.40;99.90
9640;DHT22;51745;50.872;4.732;2022-07-22T12:08:43;22.20;99.90
9640;DHT22;51745;50.872;4.732;2022-07-22T12:11:31;22.30;99.90
9640;DHT22;51745;50.872;4.732;2022-07-22T12:14:19;22.30;99.90
9640;DHT22;51745;50.872;4.732;2022-07-22T12:17:08;22.50;99.90
9640;DHT22;51745;50.872;4.732;2022-07-22T12:20:08;22.50;99.90
9640;DHT22;51745;50.872;4.732;2022-07-22T12:22:56;23.80;99.90
9640;DHT22;51745;50.872;4.732;2022-07-22T12:25:51;22.40;99.90
9640;DHT22;51745;50.872;4.732;2022-07-22T12:28:39;22.40;99.90
9640;DHT22;51745;50.872;4.732;2022-07-22T12:31:27;22.70;99.90
9640;DHT22;51745;50.872;4.732;2022-07-22T12:34:15;22.80;99.90
9640;DHT22;51745;50.872;4.732;2022-07-22T12:37:13;23.00;99.90
9640;DHT22;51745;50.872;4.732;2022-07-22T12:40:03;23.00;99.90
9640;DHT22;51745;50.872;4.732;2022-07-22T12:43:00;22.50;99.90
9640;DHT22;51745;50.872;4.732;2022-07-22T12:45:51;22.50;99.90
9640;DHT22;51745;50.872;4.732;2022-07-22T12:48:44;23.00;99.90
9640;DHT22;51745;50.872;4.732;2022-07-22T12:51:36;22.40;99.90
9640;DHT22;51745;50.872;4.732;2022-07-22T12:54:24;22.60;99.90
9640;DHT22;51745;50.872;4.732;2022-07-22T12:57:12;22.90;99.90
9640;DHT22;51745;50.872;4.732;2022-07-22T13:00:02;22.70;99.90
9640;DHT22;51745;50.872;4.732;2022-07-22T13:02:50;22.90;99.90
9640;DHT22;51745;50.872;4.732;2022-07-22T13:05:39;23.10;99.90
9640;DHT22;51745;50.872;4.732;2022-07-22T13:08:28;22.60;99.90
9640;DHT22;51745;50.872;4.732;2022-07-22T13:11:34;22.90;99.90
9640;DHT22;51745;50.872;4.732;2022-07-22T13:14:28;23.20;99.90
9640;DHT22;51745;50.872;4.732;2022-07-22T13:17:21;23.80;99.90
9640;DHT22;51745;50.872;4.732;2022-07-22T13:20:09;22.70;99.90
9640;DHT22;51745;50.872;4.732;2022-07-22T13:22:57;22.80;99.90
9640;DHT22;51745;50.872;4.732;2022-07-22T13:25:44;22.70;99.90
9640;DHT22;51745;50.872;4.732;2022-07-22T13:28:40;22.80;99.90
9640;DHT22;51745;50.872;4.732;2022-07-22T13:31:27;21.10;99.90
9640;DHT22;51745;50.872;4.732;2022-07-22T13:34:20;24.80;99.90
9640;DHT22;51745;50.872;4.732;2022-07-22T13:37:23;22.80;99.90
9640;DHT22;51745;50.872;4.732;2022-07-22T13:40:11;24.40;99.90
9640;DHT22;51745;50.872;4.732;2022-07-22T13:43:01;23.20;99.90
9640;DHT22;51745;50.872;4.732;2022-07-22T13:45:48;23.20;99.90
9640;DHT22;51745;50.872;4.732;2022-07-22T13:48:36;23.10;99.90
9640;DHT22;51745;50.872;4.732;2022-07-22T13:51:31;22.70;99.90
9640;DHT22;51745;50.872;4.732;2022-07-22T13:54:21;23.00;99.90
9640;DHT22;51745;50.872;4.732;2022-07-22T13:57:11;23.10;99.90
9640;DHT22;51745;50.872;4.732;2022-07-22T14:00:00;23.20;99.90
9640;DHT22;51745;50.872;4.732;2022-07-22T14:02:48;23.00;99.90
9640;DHT22;51745;50.872;4.732;2022-07-22T14:05:38;23.00;99.90
9640;DHT22;51745;50.872;4.732;2022-07-22T14:08:27;23.10;99.90
9640;DHT22;51745;50.872;4.732;2022-07-22T14:11:14;22.80;99.90
9640;DHT22;51745;50.872;4.732;2022-07-22T14:17:36;22.80;99.90
9640;DHT22;51745;50.872;4.732;2022-07-22T14:20:25;22.70;99.90
9640;DHT22;51745;50.872;4.732;2022-07-22T14:23:13;21.20;99.90
9640;DHT22;51745;50.872;4.732;2022-07-22T14:26:04;23.00;99.90
9640;DHT22;51745;50.872;4.732;2022-07-22T14:28:53;23.00;99.90
9640;DHT22;51745;50.872;4.732;2022-07-22T14:31:42;22.90;99.90
9640;DHT22;51745;50.872;4.732;2022-07-22T14:34:30;22.80;99.90
9640;DHT22;51745;50.872;4.732;2022-07-22T14:37:19;22.40;99.90
9640;DHT22;51745;50.872;4.732;2022-07-22T14:40:19;22.90;99.90
9640;DHT22;51745;50.872;4.732;2022-07-22T14:43:14;22.80;99.90
9640;DHT22;51745;50.872;4.732;2022-07-22T14:46:28;22.90;99.90
9640;DHT22;51745;50.872;4.732;2022-07-22T14:49:18;22.60;99.90
9640;DHT22;51745;50.872;4.732;2022-07-22T14:52:09;22.60;99.90
9640;DHT22;51745;50.872;4.732;2022-07-22T14:55:16;22.80;99.90
9640;DHT22;51745;50.872;4.732;2022-07-22T14:58:22;22.70;99.90
9640;DHT22;51745;50.872;4.732;2022-07-22T15:01:10;22.80;99.90
9640;DHT22;51745;50.872;4.732;2022-07-22T15:03:59;22.50;99.90
9640;DHT22;51745;50.872;4.732;2022-07-22T15:06:48;22.50;99.90
9640;DHT22;51745;50.872;4.732;2022-07-22T15:09:35;22.40;99.90
9640;DHT22;51745;50.872;4.732;2022-07-22T15:12:23;22.40;99.90
9640;DHT22;51745;50.872;4.732;2022-07-22T15:15:39;22.30;99.90
9640;DHT22;51745;50.872;4.732;2022-07-22T15:18:26;22.20;99.90
9640;DHT22;51745;50.872;4.732;2022-07-22T15:21:14;22.20;99.90
9640;DHT22;51745;50.872;4.732;2022-07-22T15:24:04;22.20;99.90
9640;DHT22;51745;50.872;4.732;2022-07-22T15:26:54;22.00;99.90
9640;DHT22;51745;50.872;4.732;2022-07-22T15:29:45;22.10;99.90
9640;DHT22;51745;50.872;4.732;2022-07-22T15:32:41;22.10;99.90
9640;DHT22;51745;50.872;4.732;2022-07-22T15:35:41;22.30;99.90
9640;DHT22;51745;50.872;4.732;2022-07-22T15:38:29;22.70;99.90
9640;DHT22;51745;50.872;4.732;2022-07-22T15:41:22;22.40;99.90
9640;DHT22;51745;50.872;4.732;2022-07-22T15:44:13;22.50;99.90
9640;DHT22;51745;50.872;4.732;2022-07-22T15:47:02;22.50;99.90
9640;DHT22;51745;50.872;4.732;2022-07-22T15:49:51;22.30;99.90
9640;DHT22;51745;50.872;4.732;2022-07-22T15:52:43;22.50;99.90
9640;DHT22;51745;50.872;4.732;2022-07-22T15:55:34;22.40;99.90
9640;DHT22;51745;50.872;4.732;2022-07-22T15:58:28;22.60;99.90
9640;DHT22;51745;50.872;4.732;2022-07-22T16:01:55;22.00;99.90
9640;DHT22;51745;50.872;4.732;2022-07-22T16:04:44;22.20;99.90
9640;DHT22;51745;50.872;4.732;2022-07-22T16:07:34;22.80;99.90
9640;DHT22;51745;50.872;4.732;2022-07-22T16:10:28;21.90;99.90
9640;DHT22;51745;50.872;4.732;2022-07-22T16:13:18;21.90;99.90
9640;DHT22;51745;50.872;4.732;2022-07-22T16:16:06;22.40;99.90
9640;DHT22;51745;50.872;4.732;2022-07-22T16:18:59;22.00;99.90
9640;DHT22;51745;50.872;4.732;2022-07-22T16:21:50;21.90;99.90
9640;DHT22;51745;50.872;4.732;2022-07-22T16:24:39;21.80;99.90
9640;DHT22;51745;50.872;4.732;2022-07-22T16:27:26;22.10;99.90
9640;DHT22;51745;50.872;4.732;2022-07-22T16:30:16;24.10;99.90
9640;DHT22;51745;50.872;4.732;2022-07-22T16:33:05;21.70;99.90
9640;DHT22;51745;50.872;4.732;2022-07-22T16:35:59;21.70;99.90
9640;DHT22;51745;50.872;4.732;2022-07-22T16:38:51;21.70;99.90
9640;DHT22;51745;50.872;4.732;2022-07-22T16:41:42;21.30;99.90
9640;DHT22;51745;50.872;4.732;2022-07-22T16:44:30;21.50;99.90
9640;DHT22;51745;50.872;4.732;2022-07-22T16:47:23;21.40;99.90
9640;DHT22;51745;50.872;4.732;2022-07-22T16:50:13;21.50;99.90
9640;DHT22;51745;50.872;4.732;2022-07-22T16:53:03;21.50;99.90
9640;DHT22;51745;50.872;4.732;2022-07-22T16:55:53;21.50;99.90
9640;DHT22;51745;50.872;4.732;2022-07-22T16:58:42;21.50;99.90
9640;DHT22;51745;50.872;4.732;2022-07-22T17:01:31;21.50;99.90
9640;DHT22;51745;50.872;4.732;2022-07-22T17:04:20;21.50;99.90
9640;DHT22;51745;50.872;4.732;2022-07-22T17:07:18;21.50;99.90
9640;DHT22;51745;50.872;4.732;2022-07-22T17:10:06;21.90;99.90
9640;DHT22;51745;50.872;4.732;2022-07-22T17:12:54;21.30;99.90
9640;DHT22;51745;50.872;4.732;2022-07-22T17:16:03;21.30;99.90
9640;DHT22;51745;50.872;4.732;2022-07-22T17:18:51;21.20;99.90
9640;DHT22;51745;50.872;4.732;2022-07-22T17:21:40;21.20;99.90
9640;DHT22;51745;50.872;4.732;2022-07-22T17:24:28;21.20;99.90
9640;DHT22;51745;50.872;4.732;2022-07-22T17:27:15;21.20;99.90
9640;DHT22;51745;50.872;4.732;2022-07-22T17:30:09;21.10;99.90
9640;DHT22;51745;50.872;4.732;2022-07-22T17:32:59;21.10;99.90
9640;DHT22;51745;50.872;4.732;2022-07-22T17:35:47;21.00;99.90
9640;DHT22;51745;50.872;4.732;2022-07-22T17:38:35;21.00;99.90
9640;DHT22;51745;50.872;4.732;2022-07-22T17:41:22;21.00;99.90
9640;DHT22;51745;50.872;4.732;2022-07-22T17:44:11;21.80;99.90
9640;DHT22;51745;50.872;4.732;2022-07-22T17:47:00;21.60;99.90
9640;DHT22;51745;50.872;4.732;2022-07-22T17:49:49;20.90;99.90
9640;DHT22;51745;50.872;4.732;2022-07-22T17:52:37;20.90;99.90
9640;DHT22;51745;50.872;4.732;2022-07-22T17:55:25;20.90;99.90
9640;DHT22;51745;50.872;4.732;2022-07-22T17:58:13;20.80;99.90
9640;DHT22;51745;50.872;4.732;2022-07-22T18:01:00;20.60;99.90
9640;DHT22;51745;50.872;4.732;2022-07-22T18:03:48;20.50;99.90
9640;DHT22;51745;50.872;4.732;2022-07-22T18:06:36;20.40;99.90
9640;DHT22;51745;50.872;4.732;2022-07-22T18:09:24;20.30;99.90
9640;DHT22;51745;50.872;4.732;2022-07-22T18:12:13;20.40;99.90
9640;DHT22;51745;50.872;4.732;2022-07-22T18:15:05;20.20;99.90
9640;DHT22;51745;50.872;4.732;2022-07-22T18:17:52;20.10;99.90
9640;DHT22;51745;50.872;4.732;2022-07-22T18:20:40;20.10;99.90
9640;DHT22;51745;50.872;4.732;2022-07-22T18:23:30;20.00;99.90
9640;DHT22;51745;50.872;4.732;2022-07-22T18:26:18;20.20;99.90
9640;DHT22;51745;50.872;4.732;2022-07-22T18:29:06;20.00;99.90